createdAt,value
2019-01-02T00:02:01.747Z,99158.96
2019-01-02T00:04:31.396Z,99149.92
2019-01-02T00:07:01.110Z,99150.88
2019-01-02T00:09:30.817Z,99148.23
2019-01-02T00:12:00.724Z,99147.10
2019-01-02T00:14:30.452Z,99151.91
2019-01-02T00:17:01.889Z,99145.56
2019-01-02T00:19:31.486Z,99155.11
2019-01-02T00:24:57.517Z,99142.34
2019-01-02T00:27:27.289Z,99149.05
2019-01-02T00:29:58.677Z,99149.75
2019-01-02T00:32:28.320Z,99142.88
2019-01-02T00:34:58.249Z,99140.58
2019-01-02T00:37:27.834Z,99136.71
2019-01-02T00:39:57.534Z,99131.23
2019-01-02T00:42:27.491Z,99126.17
2019-01-02T00:44:57.127Z,99117.61
2019-01-02T00:47:42.685Z,99114.28
2019-01-02T00:50:12.814Z,99110.84
2019-01-02T00:52:42.455Z,99105.39
2019-01-02T00:58:06.399Z,99093.33
2019-01-02T01:03:31.974Z,99074.77
2019-01-02T01:06:03.423Z,99059.91
2019-01-02T01:08:33.020Z,99053.92
2019-01-02T01:11:04.487Z,99043.98
2019-01-02T01:13:34.122Z,99040.61
2019-01-02T01:16:04.235Z,99036.45
2019-01-02T01:18:33.837Z,99025.59
2019-01-02T01:21:03.791Z,99017.11
2019-01-02T01:23:33.367Z,99019.30
2019-01-02T01:26:03.020Z,99004.62
2019-01-02T01:28:34.457Z,98999.48
2019-01-02T01:31:04.039Z,98990.24
2019-01-02T01:33:33.668Z,98992.89
2019-01-02T01:36:03.558Z,98988.19
2019-01-02T01:38:33.133Z,98985.67
2019-01-02T01:41:02.799Z,98982.66
2019-01-02T01:46:08.316Z,98975.80
2019-01-02T01:48:38.129Z,98978.59
2019-01-02T01:51:07.725Z,98977.98
2019-01-02T01:53:37.329Z,98831.90
2019-01-02T01:56:07.283Z,98974.72
2019-01-02T01:58:36.871Z,98976.34
2019-01-02T02:01:06.821Z,98970.23
2019-01-02T02:03:36.423Z,98968.38
2019-01-02T02:06:06.041Z,98970.16
2019-01-02T02:08:35.914Z,98960.52
2019-01-02T02:13:41.093Z,98961.69
2019-01-02T02:23:25.938Z,98957.25
2019-01-02T02:42:10.371Z,98935.42
2019-01-02T02:45:32.696Z,98826.47
2019-01-02T02:58:54.168Z,98933.13
2019-01-02T03:01:45.878Z,98933.73
2019-01-02T03:05:00.621Z,98926.52
2019-01-02T03:22:45.289Z,98898.39
2019-01-02T04:29:53.419Z,98837.02
2019-01-02T04:50:54.932Z,98818.89
2019-01-02T04:53:31.487Z,98815.69
2019-01-02T04:56:01.263Z,98816.91
2019-01-02T04:58:30.908Z,98808.03
2019-01-02T05:01:00.511Z,98802.36
2019-01-02T05:03:30.184Z,98801.17
2019-01-02T05:05:59.823Z,98797.89
2019-01-02T05:08:29.402Z,98794.33
2019-01-02T05:10:59.091Z,98789.16
2019-01-02T05:13:28.679Z,98792.18
2019-01-02T05:15:58.343Z,98781.17
2019-01-02T05:18:28.147Z,98782.56
2019-01-02T05:20:57.713Z,98783.77
2019-01-02T05:23:27.322Z,98775.34
2019-01-02T05:25:57.059Z,98778.72
2019-01-02T05:28:26.708Z,98770.98
2019-01-02T05:30:56.379Z,98772.34
2019-01-02T05:33:26.011Z,98767.84
2019-01-02T05:35:55.646Z,98768.38
2019-01-02T05:38:25.257Z,98764.67
2019-01-02T05:40:54.999Z,98763.89
2019-01-02T05:43:24.626Z,98753.70
2019-01-02T05:45:54.265Z,98760.55
2019-01-02T05:48:23.904Z,98758.72
2019-01-02T05:50:53.592Z,98756.63
2019-01-02T05:53:23.249Z,98766.22
2019-01-02T05:55:53.038Z,98763.92
2019-01-02T05:58:22.757Z,98769.78
2019-01-02T06:00:52.372Z,98768.75
2019-01-02T06:03:22.028Z,98768.92
2019-01-02T06:05:51.615Z,98771.86
2019-01-02T06:08:21.279Z,98641.78
2019-01-02T06:10:51.014Z,98764.63
2019-01-02T06:13:20.713Z,98763.47
2019-01-02T06:15:50.297Z,98760.02
2019-01-02T06:20:54.813Z,98752.16
2019-01-02T06:23:24.500Z,98745.13
2019-01-02T06:25:54.290Z,98754.72
2019-01-02T06:28:23.958Z,98750.16
2019-01-02T06:30:53.717Z,98754.37
2019-01-02T06:33:23.320Z,98756.78
2019-01-02T06:35:52.943Z,98757.55
2019-01-02T06:41:17.493Z,98758.69
2019-01-02T06:43:47.185Z,98762.62
2019-01-02T06:46:16.826Z,98767.52
2019-01-02T06:48:46.768Z,98775.77
2019-01-02T06:51:16.434Z,98780.81
2019-01-02T06:53:46.116Z,98780.91
2019-01-02T06:56:15.747Z,98788.92
2019-01-02T06:58:45.439Z,98787.81
2019-01-02T07:01:15.070Z,98782.76
2019-01-02T07:03:44.719Z,98789.87
2019-01-02T07:06:14.388Z,98784.66
2019-01-02T07:08:43.979Z,98790.21
2019-01-02T07:11:13.588Z,98787.39
2019-01-02T07:13:43.268Z,98787.05
2019-01-02T07:16:12.974Z,98777.52
2019-01-02T07:18:42.650Z,98777.09
2019-01-02T07:21:12.378Z,98762.75
2019-01-02T07:23:41.985Z,98752.96
2019-01-02T07:26:11.725Z,98742.01
2019-01-02T07:28:41.411Z,98737.14
2019-01-02T07:31:11.163Z,98725.00
2019-01-02T07:37:37.022Z,98722.41
2019-01-02T07:40:44.847Z,98726.80
2019-01-02T07:43:52.272Z,98728.92
2019-01-02T07:47:01.201Z,98724.53
2019-01-02T07:49:56.461Z,98719.44
2019-01-02T07:57:15.525Z,98716.98
2019-01-02T08:00:23.102Z,98713.77
2019-01-02T08:03:31.705Z,98704.50
2019-01-02T08:06:40.693Z,98708.22
2019-01-02T08:09:37.056Z,98712.87
2019-01-02T08:12:18.548Z,98713.48
2019-01-02T08:15:27.328Z,98716.84
2019-01-02T08:18:36.532Z,98718.11
2019-01-02T08:21:43.963Z,98724.84
2019-01-02T08:24:52.699Z,98712.70
2019-01-02T08:28:01.523Z,98711.44
2019-01-02T08:31:10.035Z,98706.62
2019-01-02T08:34:18.086Z,98697.16
2019-01-02T08:37:26.933Z,98687.38
2019-01-02T08:40:36.001Z,98693.33
2019-01-02T08:43:30.304Z,98692.48
2019-01-02T08:46:37.991Z,98695.48
2019-01-02T08:49:32.046Z,98708.05
2019-01-02T08:52:40.468Z,98702.77
2019-01-02T09:19:03.933Z,98658.82
2019-01-02T10:03:19.750Z,98616.23
2019-01-02T10:36:49.430Z,98564.12
2019-01-02T11:03:16.372Z,98514.02
2019-01-02T11:06:24.165Z,98442.14
2019-01-02T11:42:04.099Z,98450.30
2019-01-02T11:48:04.079Z,98434.05
2019-01-02T11:50:33.674Z,98429.32
2019-01-02T11:53:03.268Z,98427.16
2019-01-02T11:55:32.925Z,98420.95
2019-01-02T11:58:02.592Z,98411.48
2019-01-02T12:00:32.285Z,98408.71
2019-01-02T12:35:03.666Z,98414.02
2019-01-02T12:37:33.272Z,98410.03
2019-01-02T12:40:02.891Z,98408.23
2019-01-02T12:45:27.420Z,98397.98
2019-01-02T12:47:57.070Z,98391.36
2019-01-02T12:50:26.651Z,98385.09
2019-01-02T12:52:56.228Z,98400.90
2019-01-02T12:55:25.877Z,98393.26
2019-01-02T12:57:55.516Z,98398.73
2019-01-02T13:00:45.533Z,98394.30
2019-01-02T13:32:41.496Z,98388.29
2019-01-02T13:35:50.203Z,98389.17
2019-01-02T13:38:57.634Z,98387.80
2019-01-02T13:57:00.975Z,98394.20
2019-01-02T13:59:30.614Z,98387.63
2019-01-02T14:02:00.274Z,98384.16
2019-01-02T14:04:29.986Z,98388.55
2019-01-02T14:06:59.593Z,98393.27
2019-01-02T14:09:29.270Z,98385.66
2019-01-02T14:11:59.002Z,98387.89
2019-01-02T14:14:28.642Z,98388.23
2019-01-02T14:16:58.265Z,98388.55
2019-01-02T14:19:27.900Z,98387.40
2019-01-02T14:21:57.525Z,98394.88
2019-01-02T14:24:27.185Z,98391.17
2019-01-02T14:26:56.860Z,98392.45
2019-01-02T14:29:26.490Z,98387.94
2019-01-02T14:31:56.083Z,98392.15
2019-01-02T14:34:25.711Z,98391.30
2019-01-02T14:36:55.302Z,98384.47
2019-01-02T14:39:25.783Z,98386.41
2019-01-02T14:41:55.563Z,98390.04
2019-01-02T14:44:25.143Z,98395.16
2019-01-02T14:46:54.770Z,98388.40
2019-01-02T14:49:24.428Z,98391.48
2019-01-02T14:51:54.092Z,98387.39
2019-01-02T14:54:23.745Z,98388.56
2019-01-02T14:59:29.166Z,98386.47
2019-01-02T15:01:58.843Z,98394.08
2019-01-02T15:04:28.488Z,98393.31
2019-01-02T15:06:58.073Z,98393.19
2019-01-02T15:09:27.738Z,98399.61
2019-01-02T15:11:57.387Z,98393.25
2019-01-02T15:14:27.149Z,98396.15
2019-01-02T15:16:56.833Z,98394.38
2019-01-02T15:19:26.430Z,98403.92
2019-01-02T15:21:56.024Z,98393.24
2019-01-02T15:24:25.670Z,98401.40
2019-01-02T15:26:55.258Z,98401.55
2019-01-02T15:29:24.853Z,98396.66
2019-01-02T15:34:49.576Z,98396.54
2019-01-02T15:37:19.199Z,98393.38
2019-01-02T15:39:48.780Z,98405.03
2019-01-02T15:42:18.376Z,98402.00
2019-01-02T15:44:48.027Z,98416.80
2019-01-02T15:47:17.648Z,98421.48
2019-01-02T15:49:47.252Z,98427.91
2019-01-02T15:54:52.024Z,98430.53
2019-01-02T15:57:21.671Z,98428.25
2019-01-02T15:59:51.254Z,98427.86
2019-01-02T16:02:20.846Z,98434.58
2019-01-02T16:04:50.470Z,98430.89
2019-01-02T16:07:20.097Z,98438.47
2019-01-02T16:09:49.659Z,98433.50
2019-01-02T16:12:19.431Z,98443.14
2019-01-02T16:14:49.121Z,98452.33
2019-01-02T16:17:18.727Z,98455.51
2019-01-02T16:19:48.391Z,98464.70
2019-01-02T16:22:18.041Z,98466.22
2019-01-02T16:24:47.612Z,98303.02
2019-01-02T16:27:17.228Z,98476.55
2019-01-02T16:35:53.936Z,98489.80
2019-01-02T16:38:23.741Z,98497.28
2019-01-02T16:40:53.513Z,98501.45
2019-01-02T16:43:23.123Z,98507.20
2019-01-02T16:45:52.808Z,98512.16
2019-01-02T16:48:22.449Z,98524.45
2019-01-02T16:50:52.111Z,98434.36
2019-01-02T16:56:08.861Z,98524.34
2019-01-02T16:58:42.628Z,98525.14
2019-01-02T17:01:15.647Z,98527.84
2019-01-02T17:03:54.027Z,98542.97
2019-01-02T17:06:32.951Z,98542.58
2019-01-02T17:09:09.902Z,98538.48
2019-01-02T17:11:42.885Z,98535.59
2019-01-02T17:14:35.403Z,98543.36
2019-01-02T17:17:05.079Z,98442.78
2019-01-02T17:19:34.695Z,98535.58
2019-01-02T17:22:04.324Z,98546.13
2019-01-02T17:24:33.923Z,98541.18
2019-01-02T17:27:03.526Z,98551.45
2019-01-02T17:39:11.230Z,98564.28
2019-01-02T17:41:43.181Z,98557.41
2019-01-02T17:44:34.092Z,98465.70
2019-01-02T17:47:13.975Z,98565.62
2019-01-02T17:49:49.877Z,98560.95
2019-01-02T17:52:21.477Z,98565.68
2019-01-02T17:54:56.454Z,98560.86
2019-01-02T17:57:27.751Z,98567.27
2019-01-02T17:59:58.758Z,98567.27
2019-01-02T18:02:30.123Z,98572.09
2019-01-02T18:05:00.758Z,98564.70
2019-01-02T18:07:34.009Z,98567.59
2019-01-02T18:15:53.744Z,98572.78
2019-01-02T18:18:25.386Z,98580.03
2019-01-02T18:21:02.911Z,98570.81
2019-01-02T18:23:36.025Z,98570.30
2019-01-02T18:26:16.833Z,98575.59
2019-01-02T18:28:50.671Z,98569.06
2019-01-02T18:31:25.117Z,98573.25
2019-01-02T18:33:58.138Z,98576.76
2019-01-02T18:36:28.581Z,98574.16
2019-01-02T18:38:59.264Z,98577.14
2019-01-02T18:41:30.217Z,98541.41
2019-01-02T18:44:03.431Z,98596.03
2019-01-02T18:46:33.650Z,98589.05
2019-01-02T18:49:10.320Z,98593.69
2019-01-02T18:51:41.477Z,98594.69
2019-01-02T18:54:11.996Z,98595.06
2019-01-02T18:56:42.385Z,98602.49
2019-01-02T19:02:08.221Z,98606.81
2019-01-02T19:04:44.631Z,98617.88
2019-01-02T19:07:17.647Z,98608.30
2019-01-02T19:09:48.425Z,98616.73
2019-01-02T19:12:40.842Z,98608.83
2019-01-02T19:15:32.304Z,98615.73
2019-01-02T19:18:02.770Z,98625.41
2019-01-02T19:20:34.136Z,98613.70
2019-01-02T19:23:04.819Z,98625.10
2019-01-02T19:25:39.709Z,98623.70
2019-01-02T19:28:10.547Z,98647.06
2019-01-02T19:30:42.485Z,98633.72
2019-01-02T19:33:15.663Z,98633.96
2019-01-02T19:35:46.995Z,98647.00
2019-01-02T19:38:18.447Z,98637.83
2019-01-02T19:40:51.489Z,98636.63
2019-01-02T19:43:29.525Z,98642.71
2019-01-02T19:45:59.761Z,98632.75
2019-01-02T19:48:30.747Z,98637.95
2019-01-02T19:51:08.840Z,98643.64
2019-01-02T19:53:59.135Z,98649.61
2019-01-02T19:59:28.454Z,98639.72
2019-01-02T20:02:04.259Z,98633.72
2019-01-02T20:04:58.646Z,98632.30
2019-01-02T20:10:54.161Z,98633.71
2019-01-02T20:13:24.713Z,98634.71
2019-01-02T20:15:57.751Z,98638.01
2019-01-02T20:18:28.821Z,98639.86
2019-01-02T20:20:59.456Z,98638.83
2019-01-02T20:23:29.088Z,98630.11
2019-01-02T20:25:58.853Z,98633.65
2019-01-02T20:28:28.483Z,98637.68
2019-01-02T20:30:58.148Z,98635.42
2019-01-02T20:33:27.871Z,98633.61
2019-01-02T20:35:57.787Z,98628.38
2019-01-02T20:38:27.470Z,98631.44
2019-01-02T20:40:57.205Z,98630.09
2019-01-02T20:43:26.856Z,98623.91
2019-01-02T20:45:56.463Z,98622.44
2019-01-02T20:48:26.352Z,98627.01
2019-01-02T20:50:55.977Z,98618.66
2019-01-02T20:53:25.643Z,98626.12
2019-01-02T20:55:55.348Z,98616.13
2019-01-02T20:58:25.111Z,98626.38
2019-01-02T21:00:54.763Z,98609.59
2019-01-02T21:03:24.423Z,98617.26
2019-01-02T21:05:54.038Z,98610.33
2019-01-02T21:08:23.750Z,98617.38
2019-01-02T21:10:53.407Z,98620.17
2019-01-02T21:13:23.103Z,98619.03
2019-01-02T21:15:52.785Z,98621.55
2019-01-02T21:18:22.492Z,98617.18
2019-01-02T21:20:52.234Z,98613.19
2019-01-02T21:23:21.843Z,98624.55
2019-01-02T21:25:51.756Z,98623.66
2019-01-02T21:28:21.431Z,98615.99
2019-01-02T21:30:51.013Z,98615.41
2019-01-02T21:33:20.908Z,98615.55
2019-01-02T21:35:50.477Z,98610.23
2019-01-02T21:38:20.117Z,98613.58
2019-01-02T21:40:49.851Z,98616.55
2019-01-02T21:43:19.475Z,98614.72
2019-01-02T21:45:49.182Z,98612.64
2019-01-02T21:48:18.809Z,98609.03
2019-01-02T21:50:48.398Z,98605.48
2019-01-02T21:53:18.173Z,98621.56
2019-01-02T21:55:47.869Z,98614.66
2019-01-02T21:58:17.542Z,98615.86
2019-01-02T22:00:47.137Z,98617.69
2019-01-02T22:03:16.958Z,98622.20
2019-01-02T22:05:46.597Z,98624.77
2019-01-02T22:09:08.834Z,98626.12
2019-01-02T22:11:42.236Z,98627.26
2019-01-02T22:14:12.206Z,98638.50
2019-01-02T22:16:47.683Z,98631.50
2019-01-02T22:19:20.552Z,98630.86
2019-01-02T22:21:53.368Z,98629.53
2019-01-02T22:24:25.510Z,98639.16
2019-01-02T22:26:58.775Z,98642.44
2019-01-02T22:29:29.871Z,98551.76
2019-01-02T22:32:00.618Z,98643.64
2019-01-02T22:34:32.521Z,98651.59
2019-01-02T22:37:08.196Z,98647.36
2019-01-02T22:39:46.394Z,98635.84
2019-01-02T22:42:17.817Z,98644.34
2019-01-02T22:44:53.549Z,98653.27
2019-01-02T22:47:24.583Z,98647.73
2019-01-02T22:49:59.591Z,98644.90
2019-01-02T22:52:31.995Z,98651.80
2019-01-02T22:55:13.860Z,98642.27
2019-01-02T22:57:47.559Z,98649.33
2019-01-02T23:00:45.258Z,98649.80
2019-01-02T23:03:33.313Z,98551.80
2019-01-02T23:06:34.521Z,98647.95
2019-01-02T23:09:33.411Z,98654.39
2019-01-02T23:12:29.458Z,98648.70
2019-01-02T23:19:11.170Z,98643.77
2019-01-02T23:22:00.770Z,98655.48
2019-01-02T23:24:54.131Z,98651.05
2019-01-02T23:27:43.568Z,98645.79
2019-01-02T23:30:33.340Z,98646.75
2019-01-02T23:33:22.669Z,98647.95
2019-01-02T23:39:23.561Z,98644.34
2019-01-02T23:42:11.967Z,98649.61
2019-01-02T23:45:00.476Z,98651.69
2019-01-02T23:47:48.925Z,98652.45
2019-01-02T23:53:32.502Z,98655.12
2019-01-02T23:56:22.152Z,98645.87
2019-01-02T23:59:11.563Z,98655.36
